Tue 2018-06-19 10:46
Local weather stations in Arizona
KCGZ
Casa_Grande_Muni_Airport
Casa Grande, Casa Grande Municipal Airport, AZ, United States (KCGZ) 32-57N 111-46W
Jun 19, 2018 - 12:56 PM EDT / 2018.06.19 1656 UTC
Wind: Calm:0
Visibility: 10 mile(s):0
Sky conditions: clear
Temperature: 88.0 F (31.1 C)
Dew Point: 39.0 F (3.9 C)
Relative Humidity: 17%
Pressure (altimeter): 29.91 in. Hg (1012 hPa)
ob: KCGZ 191656Z AUTO 00000KT 10SM CLR 31/04 A2991 RMK AO2 SLP112 T03110039 PNO 
cycle: 17
KRYN
Tucson/Ryan_Field
Station name not available
Jun 19, 2018 - 12:45 PM EDT / 2018.06.19 1645 UTC
Wind: Calm:0
Visibility: 10 mile(s):0
Sky conditions: clear
Temperature: 86 F (30 C)
Dew Point: 39 F (4 C)
Relative Humidity: 19%
Pressure (altimeter): 29.98 in. Hg (1015 hPa)
ob: KRYN 191645Z 00000KT 10SM CLR 30/04 A2998 
cycle: 17
KDMA
Tucson/Davis-Monthan-AFB
Davis-Monthan Air Force Base, AZ, United States (KDMA) 32-10N 110-53W
Jun 19, 2018 - 12:58 PM EDT / 2018.06.19 1658 UTC
Wind: Calm:0
Visibility: 10 mile(s):0
Sky conditions: clear
Temperature: 86.5 F (30.3 C)
Dew Point: 40.6 F (4.8 C)
Relative Humidity: 19%
Pressure (altimeter): 29.97 in. Hg (1014 hPa)
ob: KDMA 191658Z AUTO 00000KT 10SM CLR 30/05 A2997 RMK AO2 SLP102 T03030048 
cycle: 17
KOLS
Nogales-Intl_Airport
NOGALES INTERNATIONAL AIRPORT , AZ, United States (KOLS) 31-25N 110-51W 1184M
Jun 19, 2018 - 12:54 PM EDT / 2018.06.19 1654 UTC
Wind: from the SE (140 degrees) at 3 MPH (3 KT):0
Visibility: 10 mile(s):0
Sky conditions: clear
Temperature: 87.1 F (30.6 C)
Dew Point: 32.0 F (0.0 C)
Relative Humidity: 13%
Pressure (altimeter): 30.05 in. Hg (1017 hPa)
ob: KOLS 191654Z AUTO 14003KT 10SM CLR 31/00 A3005 RMK AO2 SLP103 T03060000
cycle: 17
KFHU
Fort-Huachuca
Fort Huachuca, Libby AAF Ft Huachuca, AZ, United States (KFHU) 46-98N 110-20W
Jun 19, 2018 - 12:58 PM EDT / 2018.06.19 1658 UTC
Wind: from the E (080 degrees) at 6 MPH (5 KT):0
Visibility: 10 mile(s):0
Sky conditions: clear
Temperature: 82.8 F (28.2 C)
Dew Point: 29.5 F (-1.4 C)
Relative Humidity: 14%
Pressure (altimeter): 30.11 in. Hg (1019 hPa)
ob: KFHU 191658Z AUTO 08005KT 10SM CLR 28/M01 A3011 RMK AO2 SLP116 T02821014
cycle: 17
KSAD
Safford
SAFFORD MUNICIPAL AIRPORT, AZ, United States (KSAD) 32-51N 109-38W 962M
Jun 19, 2018 - 12:51 PM EDT / 2018.06.19 1651 UTC
Wind: from the NW (310 degrees) at 8 MPH (7 KT):0
Visibility: 10 mile(s):0
Sky conditions: clear
Temperature: 89.1 F (31.7 C)
Dew Point: 36.0 F (2.2 C)
Relative Humidity: 15%
Pressure (altimeter): 29.97 in. Hg (1014 hPa)
ob: KSAD 191651Z AUTO 31007KT 10SM CLR 32/02 A2997 RMK AO2 SLP086 T03170022 
cycle: 17
KGBN
Gila_Bend
Gila Bend U. S. Army Airfield, AZ, United States (KGBN) 32-26N 112-41W 261M
Jul 20, 2017 - 10:57 AM EDT / 2017.07.20 1457 UTC
Wind: Calm:0
Visibility: 10 mile(s):0
Sky conditions: partly cloudy
Temperature: 86 F (30 C)
Dew Point: 68 F (20 C)
Relative Humidity: 55%
Pressure (altimeter): 29.97 in. Hg (1014 hPa)
ob: KGBN 201457Z 00000KT 10SM FEW100 SCT150 30/20 A2997 RMK A02 NO SLP
cycle: 15
KYUM
Yuma_Intl
Yuma / Yuma International, AZ, United States (KYUM) 32-39N 114-36W 63M
Nov 07, 2008 - 06:20 AM EST / 2008.11.07 1120 UTC
Wind: from the N (010 degrees) at 7 MPH (6 KT):0
Sky conditions: clear
ob: KYUM 071120Z 0712/0812 01006KT P6SM SKC FM071700 02012KT P6SM SKC FM080100 33005KT P6SM SKC
cycle: 11
KPHX
Phoenix
Phoenix, Phoenix Sky Harbor International Airport, AZ, United States (KPHX) 33-26-03N 112-03-04W 336M
Jun 19, 2018 - 12:51 PM EDT / 2018.06.19 1651 UTC
Wind: Variable at 3 MPH (3 KT):0
Visibility: 10 mile(s):0
Sky conditions: clear
Temperature: 89.1 F (31.7 C)
Dew Point: 34.0 F (1.1 C)
Relative Humidity: 14%
Pressure (altimeter): 29.87 in. Hg (1011 hPa)
ob: KPHX 191651Z VRB03KT 10SM CLR 32/01 A2987 RMK AO2 SLP094 T03170011 
cycle: 17
KPRC
Prescott_LoveField
PRESCOTT LOVE FIELD, AZ, United States (KPRC) 34-39N 112-25W 1524M
Jun 19, 2018 - 12:53 PM EDT / 2018.06.19 1653 UTC
Wind: from the NNW (330 degrees) at 5 MPH (4 KT):0
Visibility: 10 mile(s):0
Sky conditions: clear
Temperature: 77.0 F (25.0 C)
Dew Point: 27.0 F (-2.8 C)
Relative Humidity: 15%
Pressure (altimeter): 30.12 in. Hg (1019 hPa)
ob: KPRC 191653Z 33004KT 10SM CLR 25/M03 A3012 RMK AO2 SLP120 T02501028
cycle: 17
KGCN
Grand_Canyon
GRAND CANYON NATL PARK AIRPORT , AZ, United States (KGCN) 35-57N 112-09W 2016M
Jun 19, 2018 - 12:54 PM EDT / 2018.06.19 1654 UTC
Wind: from the N (010 degrees) at 8 MPH (7 KT):0
Visibility: 10 mile(s):0
Sky conditions: clear
Temperature: 73.0 F (22.8 C)
Dew Point: 21.0 F (-6.1 C)
Relative Humidity: 13%
Pressure (altimeter): 30.22 in. Hg (1023 hPa)
ob: KGCN 191654Z 01007KT 10SM CLR 23/M06 A3022 RMK AO2 SLP135 T02281061
cycle: 17
KINW
Winslow
WINSLOW MUNICIPAL AIRPORT, AZ, United States (KINW) 35-02N 110-43W 1490M
Jun 19, 2018 - 12:56 PM EDT / 2018.06.19 1656 UTC
Wind: from the N (360 degrees) at 6 MPH (5 KT):0
Visibility: 10 mile(s):0
Sky conditions: clear
Temperature: 80.1 F (26.7 C)
Dew Point: 30.0 F (-1.1 C)
Relative Humidity: 16%
Pressure (altimeter): 30.12 in. Hg (1019 hPa)
ob: KINW 191656Z AUTO 36005KT 10SM CLR 27/M01 A3012 RMK AO2 SLP123 T02671011
cycle: 17
KIFP
Bullhead_City
Bullhead City, Laughlin/Bullhead International Airport, AZ, United States (KIFP) 35-09-27N 114-33-34W
Jun 19, 2018 - 12:48 PM EDT / 2018.06.19 1648 UTC
Wind: from the SSW (200 degrees) at 5 MPH (4 KT):0
Visibility: 10 mile(s):0
Sky conditions: mostly clear
Temperature: 87 F (31 C)
Dew Point: 23 F (-5 C)
Relative Humidity: 9%
Pressure (altimeter): 29.87 in. Hg (1011 hPa)
ob: KIFP 191648Z 20004KT 10SM FEW200 31/M05 A2987
cycle: 17
43 seconds elapsed
Crontab entry: 1,16,31,46 * * * * /var/www/html/area/area.sh >/dev/null
To get a list of weather stations please use this URL:
    http://weather.rap.ucar.edu/surface/stations.txt